Terminal Aerodrome Forecast
Issued by NWS

Home | Current Version | Previous Version | Graphics & Text | Print | Product List | Glossary On
Versions: 1 2 3 4 5 6 7 8 9 10 11 12 13 14 15 16 17
000
FTUS43 KICT 201740
TAFCNU
TAF
KCNU 201740Z 2018/2118 22008KT P6SM SKC
     FM211100 19004KT P6SM FEW250
     FM211400 19008KT P6SM FEW250=

USA.gov is the U.S. government's official web portal to all federal, state and local government web resources and services.